createdAt,value
2018-11-20T00:01:21.422Z,95546.23
2018-11-20T00:04:24.032Z,95530.14
2018-11-20T00:07:17.115Z,95522.87
2018-11-20T00:10:04.070Z,95524.38
2018-11-20T00:12:54.194Z,95520.97
2018-11-20T00:15:47.488Z,95530.06
2018-11-20T00:18:34.846Z,95515.92
2018-11-20T00:21:08.339Z,95520.08
2018-11-20T00:24:01.540Z,95528.39
2018-11-20T00:26:52.039Z,95524.17
2018-11-20T00:29:46.245Z,95524.17
2018-11-20T00:32:33.779Z,95521.97
2018-11-20T00:35:20.406Z,95517.13
2018-11-20T00:38:07.996Z,95517.81
2018-11-20T00:41:04.234Z,95522.78
2018-11-20T00:43:49.634Z,95525.16
2018-11-20T00:46:36.708Z,95524.38
2018-11-20T00:49:22.556Z,95520.16
2018-11-20T00:52:09.818Z,95518.58
2018-11-20T00:55:00.102Z,95511.09
2018-11-20T00:57:56.282Z,95495.07
2018-11-20T01:00:43.844Z,95491.83
2018-11-20T01:03:43.412Z,95476.61
2018-11-20T01:06:33.538Z,95493.62
2018-11-20T01:09:26.542Z,95497.94
2018-11-20T01:12:02.294Z,95494.24
2018-11-20T01:14:48.689Z,95487.16
2018-11-20T01:17:34.429Z,95478.77
2018-11-20T01:20:12.917Z,95475.28
2018-11-20T01:22:58.534Z,95472.41
2018-11-20T01:25:51.922Z,95470.83
2018-11-20T01:28:42.515Z,95460.23
2018-11-20T01:31:32.353Z,95460.23
2018-11-20T01:34:19.613Z,95472.09
2018-11-20T01:37:06.978Z,95465.92
2018-11-20T01:39:57.590Z,95466.97
2018-11-20T01:42:47.888Z,95468.41
2018-11-20T01:45:38.404Z,95466.84
2018-11-20T01:48:24.656Z,95472.77
2018-11-20T01:51:12.186Z,95475.67
2018-11-20T01:53:54.738Z,95469.84
2018-11-20T01:56:38.684Z,95464.80
2018-11-20T01:59:24.883Z,95471.12
2018-11-20T02:02:11.023Z,95471.12
2018-11-20T02:05:01.338Z,95462.67
2018-11-20T02:07:50.529Z,95461.83
2018-11-20T02:10:36.699Z,95451.72
2018-11-20T02:14:10.385Z,95441.91
2018-11-20T02:17:08.105Z,95453.53
2018-11-20T02:19:58.338Z,95441.09
2018-11-20T02:22:44.691Z,95436.33
2018-11-20T02:25:33.817Z,95434.64
2018-11-20T02:28:21.435Z,95436.84
2018-11-20T02:31:09.872Z,95426.27
2018-11-20T02:33:56.940Z,95431.27
2018-11-20T02:36:52.626Z,95414.41
2018-11-20T02:39:42.513Z,95432.47
2018-11-20T02:42:29.753Z,95430.88
2018-11-20T02:45:16.999Z,95430.42
2018-11-20T02:48:02.661Z,95430.42
2018-11-20T02:51:02.284Z,95424.38
2018-11-20T02:53:48.889Z,95417.14
2018-11-20T02:56:45.558Z,95419.92
2018-11-20T02:59:32.024Z,95422.80
2018-11-20T03:02:19.338Z,95424.21
2018-11-20T03:05:05.525Z,95417.80
2018-11-20T03:08:08.125Z,95415.67
2018-11-20T03:10:54.446Z,95420.39
2018-11-20T03:13:57.106Z,95418.70
2018-11-20T03:16:47.492Z,95424.31
2018-11-20T03:19:36.846Z,95420.30
2018-11-20T03:22:24.134Z,95430.27
2018-11-20T03:25:23.473Z,95424.59
2018-11-20T03:28:27.196Z,95428.40
2018-11-20T03:31:28.939Z,95422.95
2018-11-20T03:34:16.182Z,95413.88
2018-11-20T03:37:05.273Z,95397.28
2018-11-20T03:39:56.718Z,95414.04
2018-11-20T03:42:43.496Z,95412.76
2018-11-20T03:45:45.965Z,95409.88
2018-11-20T03:48:31.923Z,95409.44
2018-11-20T03:51:16.016Z,95393.80
2018-11-20T03:54:06.499Z,95393.80
2018-11-20T03:56:54.159Z,95390.86
2018-11-20T03:59:41.984Z,95392.08
2018-11-20T04:02:26.052Z,95392.08
2018-11-20T04:05:16.290Z,95397.11
2018-11-20T04:08:21.986Z,95399.09
2018-11-20T04:11:17.372Z,95408.45
2018-11-20T04:14:05.006Z,95388.00
2018-11-20T04:16:51.204Z,95398.92
2018-11-20T04:19:44.610Z,95407.03
2018-11-20T04:22:50.818Z,95399.77
2018-11-20T04:25:42.833Z,95397.30
2018-11-20T04:28:29.157Z,95403.31
2018-11-20T04:31:55.343Z,95404.98
2018-11-20T04:35:01.252Z,95391.61
2018-11-20T04:37:36.561Z,95393.95
2018-11-20T04:40:36.313Z,95405.21
2018-11-20T04:43:38.863Z,95398.25
2018-11-20T04:46:33.843Z,95390.85
2018-11-20T04:49:25.777Z,95377.28
2018-11-20T04:52:25.750Z,95377.28
2018-11-20T04:55:20.670Z,95375.59
2018-11-20T04:58:06.999Z,95376.50
2018-11-20T05:00:59.592Z,95386.77
2018-11-20T05:03:59.483Z,95377.95
2018-11-20T05:07:02.203Z,95384.23
2018-11-20T05:09:48.312Z,95378.02
2018-11-20T05:12:44.570Z,95368.52
2018-11-20T05:15:25.218Z,95384.82
2018-11-20T05:18:31.067Z,95384.82
2018-11-20T05:21:18.380Z,95392.69
2018-11-20T05:23:58.501Z,95391.03
2018-11-20T05:26:45.727Z,95400.43
2018-11-20T05:29:33.265Z,95397.28
2018-11-20T05:32:19.218Z,95397.28
2018-11-20T05:35:24.850Z,95393.66
2018-11-20T05:38:02.690Z,95393.05
2018-11-20T05:40:59.263Z,95405.92
2018-11-20T05:43:45.069Z,95402.05
2018-11-20T05:46:32.750Z,95399.95
2018-11-20T05:49:25.799Z,95399.95
2018-11-20T05:52:12.968Z,95406.17
2018-11-20T05:55:00.474Z,95404.44
2018-11-20T05:57:51.368Z,95393.89
2018-11-20T06:00:50.751Z,95393.89
2018-11-20T06:03:45.825Z,95396.52
2018-11-20T06:06:43.572Z,95396.52
2018-11-20T06:09:35.090Z,95390.02
2018-11-20T06:12:15.379Z,95376.44
2018-11-20T06:15:12.858Z,95383.09
2018-11-20T06:18:00.352Z,95386.42
2018-11-20T06:20:53.024Z,95384.20
2018-11-20T06:23:27.615Z,95389.56
2018-11-20T06:26:32.865Z,95408.45
2018-11-20T06:29:12.869Z,95391.02
2018-11-20T06:31:52.377Z,95404.60
2018-11-20T06:34:45.839Z,95406.80
2018-11-20T06:37:33.359Z,95437.59
2018-11-20T06:40:39.066Z,95403.51
2018-11-20T06:43:29.124Z,95414.08
2018-11-20T06:46:10.560Z,95420.45
2018-11-20T06:48:56.415Z,95431.09
2018-11-20T06:51:40.732Z,95430.24
2018-11-20T06:54:27.813Z,95430.24
2018-11-20T06:57:21.256Z,95433.20
2018-11-20T07:00:12.185Z,95425.12
2018-11-20T07:02:57.872Z,95428.14
2018-11-20T07:05:38.724Z,95418.20
2018-11-20T07:08:30.845Z,95418.20
2018-11-20T07:11:20.638Z,95422.88
2018-11-20T07:14:21.606Z,95423.09
2018-11-20T07:17:12.088Z,95417.82
2018-11-20T07:20:08.691Z,95420.75
2018-11-20T07:22:59.258Z,95416.98
2018-11-20T07:25:45.450Z,95418.40
2018-11-20T07:28:50.165Z,95413.50
2018-11-20T07:31:43.694Z,95412.97
2018-11-20T07:34:33.684Z,95412.28
2018-11-20T07:37:16.196Z,95406.47
2018-11-20T07:40:18.689Z,95411.27
2018-11-20T07:43:04.958Z,95410.42
2018-11-20T07:45:51.095Z,95409.31
2018-11-20T07:48:50.873Z,95407.48
2018-11-20T07:51:53.779Z,95412.31
2018-11-20T07:54:56.206Z,95405.34
2018-11-20T07:57:43.393Z,95400.44
2018-11-20T08:00:20.796Z,95409.98
2018-11-20T08:03:09.487Z,95411.20
2018-11-20T08:05:59.665Z,95407.59
2018-11-20T08:08:56.689Z,95407.48
2018-11-20T08:11:31.290Z,95400.01
2018-11-20T08:14:06.516Z,95403.18
2018-11-20T08:16:43.500Z,95404.84
2018-11-20T08:19:51.688Z,95400.14
2018-11-20T08:22:34.409Z,95398.92
2018-11-20T08:25:24.217Z,95390.95
2018-11-20T08:28:10.180Z,95392.80
2018-11-20T08:30:56.981Z,95387.58
2018-11-20T08:33:53.957Z,95387.70
2018-11-20T08:36:38.136Z,95382.81
2018-11-20T08:39:25.882Z,95377.17
2018-11-20T08:42:15.826Z,95380.66
2018-11-20T08:45:01.602Z,95383.38
2018-11-20T08:47:58.121Z,95393.48
2018-11-20T08:50:44.262Z,95392.98
2018-11-20T08:53:32.504Z,95397.14
2018-11-20T08:56:31.841Z,95408.39
2018-11-20T08:59:28.143Z,95416.03
2018-11-20T09:02:14.160Z,95413.20
2018-11-20T09:04:52.060Z,95416.47
2018-11-20T09:07:34.130Z,95410.93
2018-11-20T09:10:20.622Z,95405.59
2018-11-20T09:13:07.133Z,95407.85
2018-11-20T09:15:53.333Z,95410.32
2018-11-20T09:18:49.623Z,95403.74
2018-11-20T09:21:49.238Z,95409.33
2018-11-20T09:24:36.477Z,95406.51
2018-11-20T09:27:37.003Z,95408.16
2018-11-20T09:30:37.157Z,95411.84
2018-11-20T09:33:28.174Z,95423.06
2018-11-20T09:36:30.788Z,95418.90
2018-11-20T09:39:32.843Z,95418.09
2018-11-20T09:42:16.669Z,95416.01
2018-11-20T09:45:43.068Z,95411.48
2018-11-20T09:48:36.485Z,95413.73
2018-11-20T09:51:22.724Z,95405.83
2018-11-20T09:54:09.981Z,95404.13
2018-11-20T09:56:55.814Z,95400.13
2018-11-20T09:59:52.310Z,95392.36
2018-11-20T10:02:39.472Z,95396.47
2018-11-20T10:05:31.504Z,95395.30
2018-11-20T10:08:21.805Z,95393.30
2018-11-20T10:11:21.147Z,95390.58
2018-11-20T10:14:17.304Z,95392.58
2018-11-20T10:17:04.205Z,95388.31
2018-11-20T10:19:44.800Z,95386.67
2018-11-20T10:22:41.202Z,95378.59
2018-11-20T10:25:40.619Z,95380.99
2018-11-20T10:28:26.478Z,95371.97
2018-11-20T10:31:13.980Z,95374.39
2018-11-20T10:34:07.963Z,95379.06
2018-11-20T10:37:04.185Z,95372.72
2018-11-20T10:39:51.364Z,95358.30
2018-11-20T10:42:37.824Z,95360.95
2018-11-20T10:45:24.457Z,95357.55
2018-11-20T10:48:15.275Z,95356.18
2018-11-20T10:51:04.277Z,95348.44
2018-11-20T10:54:02.481Z,95360.05
2018-11-20T10:57:08.188Z,95355.00
2018-11-20T11:00:01.444Z,95360.84
2018-11-20T11:02:47.275Z,95360.49
2018-11-20T11:05:51.699Z,95369.70
2018-11-20T11:08:38.762Z,95378.72
2018-11-20T11:11:20.697Z,95387.43
2018-11-20T11:14:14.374Z,95393.52
2018-11-20T11:16:55.918Z,95397.09
2018-11-20T11:19:43.537Z,95401.55
2018-11-20T11:22:36.896Z,95399.34
2018-11-20T11:25:25.983Z,95404.00
2018-11-20T11:28:13.177Z,95402.62
2018-11-20T11:30:58.777Z,95408.17
2018-11-20T11:33:49.286Z,95401.30
2018-11-20T11:36:51.557Z,95406.73
2018-11-20T11:39:41.583Z,95402.61
2018-11-20T11:42:36.077Z,95406.84
2018-11-20T11:45:26.783Z,95400.38
2018-11-20T11:48:26.612Z,95399.27
2018-11-20T11:51:11.844Z,95397.91
2018-11-20T11:53:58.762Z,95398.18
2018-11-20T11:56:54.569Z,95394.50
2018-11-20T11:59:41.320Z,95395.23
2018-11-20T12:05:27.355Z,95393.23
2018-11-20T12:08:22.726Z,95394.31
2018-11-20T12:11:10.180Z,95394.46
2018-11-20T12:13:56.029Z,95389.15
2018-11-20T12:16:45.648Z,95391.02
2018-11-20T12:19:31.333Z,95391.95
2018-11-20T12:22:16.972Z,95392.76
2018-11-20T12:25:04.408Z,95380.50
2018-11-20T12:28:04.029Z,95391.27
2018-11-20T12:30:51.710Z,95384.38
2018-11-20T12:33:53.640Z,95388.95
2018-11-20T12:36:48.833Z,95383.78
2018-11-20T12:39:38.399Z,95382.92
2018-11-20T12:42:32.432Z,95380.56
2018-11-20T12:45:19.689Z,95375.31
2018-11-20T12:48:12.166Z,95377.24
2018-11-20T12:51:11.244Z,95368.14
2018-11-20T12:54:07.884Z,95368.64
2018-11-20T12:56:48.074Z,95372.72
2018-11-20T12:59:26.707Z,95379.45
2018-11-20T13:02:16.954Z,95371.23
2018-11-20T13:05:07.087Z,95375.29
2018-11-20T13:07:57.566Z,95374.92
2018-11-20T13:11:01.564Z,95386.62
2018-11-20T13:13:50.233Z,95391.03
2018-11-20T13:16:39.182Z,95394.64
2018-11-20T13:19:40.874Z,95398.53
2018-11-20T13:22:41.292Z,95405.88
2018-11-20T13:25:37.502Z,95406.06
2018-11-20T13:28:36.743Z,95405.95
2018-11-20T13:31:35.927Z,95414.34
2018-11-20T13:34:25.119Z,95424.12
2018-11-20T13:37:27.284Z,95434.47
2018-11-20T13:40:24.122Z,95431.16
2018-11-20T13:43:17.146Z,95438.59
2018-11-20T13:46:13.223Z,95437.31
2018-11-20T13:48:59.349Z,95438.26
2018-11-20T13:51:51.827Z,95436.23
2018-11-20T13:54:49.795Z,95432.08
2018-11-20T13:57:35.990Z,95436.43
2018-11-20T14:00:35.234Z,95439.89
2018-11-20T14:03:22.801Z,95449.11
2018-11-20T14:06:08.989Z,95456.27
2018-11-20T14:09:13.814Z,95459.52
2018-11-20T14:12:04.584Z,95465.78
2018-11-20T14:14:54.911Z,95466.34
2018-11-20T14:17:50.347Z,95471.23
2018-11-20T14:20:46.214Z,95468.29
2018-11-20T14:23:33.700Z,95464.34
2018-11-20T14:26:19.892Z,95465.15
2018-11-20T14:29:06.314Z,95464.78
2018-11-20T14:31:58.372Z,95461.38
2018-11-20T14:34:45.541Z,95453.24
2018-11-20T14:37:24.826Z,95451.16
2018-11-20T14:40:11.998Z,95449.48
2018-11-20T14:43:08.381Z,95452.88
2018-11-20T14:45:56.873Z,95450.95
2018-11-20T14:48:49.301Z,95461.85
2018-11-20T14:51:26.574Z,95465.41
2018-11-20T14:54:12.752Z,95454.36
2018-11-20T14:56:58.879Z,95448.47
2018-11-20T14:59:53.223Z,95440.09
2018-11-20T15:02:50.028Z,95426.15
2018-11-20T15:05:46.577Z,95434.58
2018-11-20T15:08:32.224Z,95441.69
2018-11-20T15:11:19.388Z,95440.27
2018-11-20T15:14:05.828Z,95428.58
2018-11-20T15:16:52.762Z,95435.37
2018-11-20T15:19:46.180Z,95426.34
2018-11-20T15:22:26.296Z,95411.44
2018-11-20T15:25:12.032Z,95429.09
2018-11-20T15:28:02.078Z,95430.19
2018-11-20T15:30:39.420Z,95437.13
2018-11-20T15:33:25.093Z,95430.02
2018-11-20T15:36:18.283Z,95443.92
2018-11-20T15:39:14.207Z,95452.02
2018-11-20T15:42:06.722Z,95461.73
2018-11-20T15:44:39.009Z,95471.42
2018-11-20T15:47:18.872Z,95487.34
2018-11-20T15:50:04.871Z,95494.96
2018-11-20T15:52:55.950Z,95498.42
2018-11-20T15:55:44.022Z,95492.34
2018-11-20T15:58:30.308Z,95491.47
2018-11-20T16:01:25.930Z,95489.45
2018-11-20T16:04:12.283Z,95466.86
2018-11-20T16:07:04.392Z,95467.97
2018-11-20T16:09:50.190Z,95483.78
2018-11-20T16:12:46.808Z,95495.17
2018-11-20T16:15:32.477Z,95507.25
2018-11-20T16:18:18.826Z,95519.34
2018-11-20T16:21:06.172Z,95529.07
2018-11-20T16:24:02.259Z,95538.59
2018-11-20T16:26:52.730Z,95533.27
2018-11-20T16:29:38.905Z,95533.79
2018-11-20T16:32:22.359Z,95538.34
2018-11-20T16:35:08.341Z,95539.98
2018-11-20T16:37:50.089Z,95539.25
2018-11-20T16:40:37.344Z,95550.83
2018-11-20T16:43:24.642Z,95552.48
2018-11-20T16:46:11.933Z,95558.43
2018-11-20T16:49:06.772Z,95568.16
2018-11-20T16:52:00.043Z,95572.80
2018-11-20T16:55:05.885Z,95566.00
2018-11-20T16:57:56.341Z,95567.90
2018-11-20T17:00:59.057Z,95572.73
2018-11-20T17:03:47.007Z,95590.09
2018-11-20T17:06:33.034Z,95588.13
2018-11-20T17:09:38.190Z,95599.94
2018-11-20T17:12:32.078Z,95613.04
2018-11-20T17:15:34.736Z,95613.24
2018-11-20T17:18:24.711Z,95607.96
2018-11-20T17:21:20.836Z,95601.60
2018-11-20T17:24:08.403Z,95601.73
2018-11-20T17:26:55.021Z,95609.45
2018-11-20T17:29:47.193Z,95612.27
2018-11-20T17:32:37.348Z,95608.43
2018-11-20T17:35:37.041Z,95599.33
2018-11-20T17:38:30.106Z,95596.25
2018-11-20T17:41:10.012Z,95594.73
2018-11-20T17:44:03.581Z,95600.11
2018-11-20T17:46:48.465Z,95593.38
2018-11-20T17:49:34.937Z,95603.14
2018-11-20T17:52:20.118Z,95603.00
2018-11-20T17:55:07.367Z,95605.26
2018-11-20T17:57:57.928Z,95606.59
2018-11-20T18:00:54.146Z,95600.61
2018-11-20T18:03:42.555Z,95599.27
2018-11-20T18:06:36.990Z,95597.16
2018-11-20T18:09:38.947Z,95600.08
2018-11-20T18:12:35.219Z,95591.91
2018-11-20T18:15:29.358Z,95600.33
2018-11-20T18:18:06.892Z,95598.13
2018-11-20T18:21:03.674Z,95609.52
2018-11-20T18:23:50.131Z,95605.59
2018-11-20T18:26:44.142Z,95613.86
2018-11-20T18:29:24.158Z,95617.48
2018-11-20T18:32:12.120Z,95619.31
2018-11-20T18:34:58.123Z,95619.59
2018-11-20T18:37:52.945Z,95623.11
2018-11-20T18:40:39.177Z,95619.58
2018-11-20T18:43:25.584Z,95640.25
2018-11-20T18:46:11.927Z,95632.77
2018-11-20T18:49:15.007Z,95637.20
2018-11-20T18:52:05.322Z,95643.41
2018-11-20T18:54:51.465Z,95633.41
2018-11-20T18:57:32.708Z,95644.16
2018-11-20T19:00:32.439Z,95646.20
2018-11-20T19:03:16.006Z,95644.85
2018-11-20T19:06:21.462Z,95645.63
2018-11-20T19:09:07.847Z,95649.45
2018-11-20T19:12:17.593Z,95656.25
2018-11-20T19:15:03.322Z,95655.18
2018-11-20T19:17:49.217Z,95653.37
2018-11-20T19:20:54.898Z,95654.05
2018-11-20T19:23:41.224Z,95663.58
2018-11-20T19:26:34.398Z,95676.27
2018-11-20T19:29:29.005Z,95673.75
2018-11-20T19:32:15.228Z,95678.92
2018-11-20T19:35:05.082Z,95683.16
2018-11-20T19:37:46.563Z,95673.68
2018-11-20T19:40:43.225Z,95682.23
2018-11-20T19:43:24.591Z,95685.11
2018-11-20T19:46:10.308Z,95684.91
2018-11-20T19:49:02.768Z,95683.89
2018-11-20T19:52:04.690Z,95686.02
2018-11-20T19:54:50.936Z,95686.02
2018-11-20T19:57:30.061Z,95702.05
2018-11-20T20:00:26.148Z,95705.14
2018-11-20T20:03:28.698Z,95705.14
2018-11-20T20:06:27.068Z,95713.99
2018-11-20T20:09:23.515Z,95704.45
2018-11-20T20:12:29.166Z,95704.45
2018-11-20T20:15:08.538Z,95702.45
2018-11-20T20:18:08.128Z,95702.45
2018-11-20T20:21:10.943Z,95693.10
2018-11-20T20:23:55.909Z,95704.63
2018-11-20T20:26:55.240Z,95708.98
2018-11-20T20:29:54.787Z,95707.70
2018-11-20T20:32:42.035Z,95707.70
2018-11-20T20:35:47.319Z,95707.09
2018-11-20T20:38:37.311Z,95707.09
2018-11-20T20:41:23.003Z,95701.45
2018-11-20T20:44:14.158Z,95700.78
2018-11-20T20:47:08.710Z,95705.91
2018-11-20T20:49:55.160Z,95691.62
2018-11-20T20:52:47.460Z,95719.86
2018-11-20T20:55:33.500Z,95712.61
2018-11-20T20:58:20.895Z,95712.61
2018-11-20T21:01:18.829Z,95732.84
2018-11-20T21:04:25.356Z,95714.52
2018-11-20T21:07:07.407Z,95707.08
2018-11-20T21:10:07.439Z,95709.58
2018-11-20T21:12:40.911Z,95708.22
2018-11-20T21:15:40.094Z,95708.22
2018-11-20T21:18:26.539Z,95720.27
2018-11-20T21:21:07.296Z,95720.27
2018-11-20T21:23:53.299Z,95732.33
2018-11-20T21:26:43.630Z,95732.33
2018-11-20T21:29:37.244Z,95726.81
2018-11-20T21:32:24.522Z,95742.30
2018-11-20T21:35:00.551Z,95740.91
2018-11-20T21:37:56.474Z,95740.91
2018-11-20T21:40:42.990Z,95747.05
2018-11-20T21:43:23.144Z,95747.05
2018-11-20T21:46:16.556Z,95743.63
2018-11-20T21:49:09.387Z,95741.91
2018-11-20T21:51:59.372Z,95740.78
2018-11-20T21:54:50.210Z,95740.78
2018-11-20T21:57:40.429Z,95772.38
2018-11-20T22:00:38.971Z,95782.27
2018-11-20T22:03:41.548Z,95779.55
2018-11-20T22:07:15.819Z,95779.48
2018-11-20T22:10:13.749Z,95780.78
2018-11-20T22:13:01.641Z,95794.31
2018-11-20T22:15:46.631Z,95794.45
2018-11-20T22:18:45.441Z,95805.98
2018-11-20T22:21:30.534Z,95795.14
2018-11-20T22:24:15.865Z,95795.14
2018-11-20T22:27:01.980Z,95793.59
2018-11-20T22:29:39.544Z,95793.59
2018-11-20T22:32:24.847Z,95793.91
2018-11-20T22:35:14.789Z,95807.02
2018-11-20T22:37:56.570Z,95797.27
2018-11-20T22:40:42.430Z,95797.27
2018-11-20T22:43:24.832Z,95795.32
2018-11-20T22:46:10.111Z,95794.81
2018-11-20T22:49:04.852Z,95784.15
2018-11-20T22:51:50.735Z,95777.42
2018-11-20T22:54:37.193Z,95777.42
2018-11-20T22:57:22.206Z,95763.16
2018-11-20T23:00:14.550Z,95753.68
2018-11-20T23:02:52.803Z,95751.92
2018-11-20T23:05:36.638Z,95751.92
2018-11-20T23:08:03.894Z,95748.28
2018-11-20T23:10:31.034Z,95748.28
2018-11-20T23:12:58.527Z,95767.00
2018-11-20T23:15:26.165Z,95774.35
2018-11-20T23:17:53.248Z,95772.81
2018-11-20T23:20:20.417Z,95769.76
2018-11-20T23:22:47.881Z,95769.76
2018-11-20T23:25:15.388Z,95764.77
2018-11-20T23:27:43.339Z,95764.00
2018-11-20T23:30:11.932Z,95769.63
2018-11-20T23:32:39.389Z,95760.72
2018-11-20T23:35:08.082Z,95756.66
2018-11-20T23:37:35.199Z,95761.91
2018-11-20T23:40:02.122Z,95769.07
2018-11-20T23:42:29.306Z,95759.44
2018-11-20T23:45:06.631Z,95755.44
2018-11-20T23:47:34.614Z,95765.05
2018-11-20T23:50:01.765Z,95754.30
2018-11-20T23:52:28.640Z,95755.33
2018-11-20T23:54:56.004Z,95750.82
2018-11-20T23:57:22.827Z,95752.05
2018-11-20T23:59:49.766Z,95747.03
